Time;durP1;ratioP1;P1;durP2;ratioP2;P2;SDS_P1;SDS_P2;PMS_P1;PMS_P2;Temp;Humidity;BMP_temperature;BMP_pressure;BME280_temperature;BME280_humidity;BME280_pressure;Samples;Min_cycle;Max_cycle;Signal;HPM_P1;HPM_P2
2022/03/07 00:02:33;;;;;;;8.15;5.13;;;;;;;;;;10290024;28;20062;-74
2022/03/07 00:07:33;;;;;;;13.63;6.05;;;;;;;;;;10288454;28;20142;-74
2022/03/07 00:12:33;;;;;;;9.77;6.13;;;;;;;;;;10288198;28;20110;-74
2022/03/07 00:17:34;;;;;;;10.82;4.97;;;;;;;;;;10289386;28;20034;-72
2022/03/07 00:22:34;;;;;;;9.15;5.65;;;;;;;;;;10288211;28;20027;-73
2022/03/07 00:27:34;;;;;;;11.95;5.80;;;;;;;;;;10287936;28;20033;-72
2022/03/07 00:32:35;;;;;;;11.15;5.43;;;;;;;;;;10287711;28;20031;-73
2022/03/07 00:37:35;;;;;;;9.60;5.78;;;;;;;;;;10287586;28;20027;-73
2022/03/07 00:42:37;;;;;;;13.32;6.50;;;;;;;;;;10287408;28;20031;-74
2022/03/07 00:47:38;;;;;;;14.13;6.97;;;;;;;;;;10287002;28;20070;-73
2022/03/07 00:52:39;;;;;;;19.17;7.45;;;;;;;;;;10287002;28;20051;-72
2022/03/07 00:57:40;;;;;;;14.02;7.40;;;;;;;;;;10287038;28;20441;-72
2022/03/07 01:02:40;;;;;;;19.90;8.13;;;;;;;;;;10286575;28;20054;-72
2022/03/07 01:07:41;;;;;;;15.80;8.40;;;;;;;;;;10287699;28;20062;-73
2022/03/07 01:12:41;;;;;;;15.27;8.35;;;;;;;;;;10286661;28;20093;-73
2022/03/07 01:17:41;;;;;;;18.48;9.10;;;;;;;;;;10286221;28;20019;-74
2022/03/07 01:22:42;;;;;;;14.87;7.80;;;;;;;;;;10286299;28;20022;-72
2022/03/07 01:27:42;;;;;;;53.20;10.68;;;;;;;;;;10287534;28;20436;-72
2022/03/07 01:32:42;;;;;;;16.13;7.80;;;;;;;;;;10291389;28;20018;-72
2022/03/07 01:37:42;;;;;;;17.65;7.80;;;;;;;;;;10294091;28;20018;-72
2022/03/07 01:42:43;;;;;;;13.73;7.03;;;;;;;;;;10294225;28;20022;-73
2022/03/07 01:47:43;;;;;;;13.10;6.53;;;;;;;;;;10293726;28;20077;-74
2022/03/07 01:52:44;;;;;;;18.17;7.57;;;;;;;;;;10293556;28;20027;-74
2022/03/07 01:57:45;;;;;;;12.88;7.38;;;;;;;;;;10293706;28;20645;-72
2022/03/07 02:02:46;;;;;;;17.48;8.20;;;;;;;;;;10301700;28;20022;-73
2022/03/07 02:07:46;;;;;;;20.95;8.95;;;;;;;;;;10293291;28;20062;-73
2022/03/07 02:12:47;;;;;;;14.88;7.85;;;;;;;;;;10294620;28;20031;-73
2022/03/07 02:17:47;;;;;;;13.57;8.18;;;;;;;;;;10295578;28;20031;-71
2022/03/07 02:22:48;;;;;;;21.47;9.03;;;;;;;;;;10292783;28;20022;-73
2022/03/07 02:27:48;;;;;;;14.45;7.82;;;;;;;;;;10292242;28;20035;-72
2022/03/07 02:32:48;;;;;;;19.13;8.73;;;;;;;;;;10293398;28;20047;-73
2022/03/07 02:37:49;;;;;;;16.10;8.85;;;;;;;;;;10292227;28;20034;-71
2022/03/07 02:42:49;;;;;;;16.50;8.48;;;;;;;;;;10291038;28;20337;-73
2022/03/07 02:47:49;;;;;;;12.88;7.80;;;;;;;;;;10291570;28;20543;-73
2022/03/07 02:52:49;;;;;;;15.75;8.23;;;;;;;;;;10291455;28;20461;-72
2022/03/07 02:57:50;;;;;;;13.23;6.75;;;;;;;;;;10291215;28;20158;-73
2022/03/07 03:02:50;;;;;;;16.23;8.98;;;;;;;;;;10291075;28;20084;-72
2022/03/07 03:07:51;;;;;;;12.83;7.73;;;;;;;;;;10290727;28;20046;-71
2022/03/07 03:12:51;;;;;;;15.07;7.22;;;;;;;;;;10291461;28;21147;-73
2022/03/07 03:17:52;;;;;;;10.73;6.68;;;;;;;;;;10291266;28;20413;-72
2022/03/07 03:22:52;;;;;;;13.63;6.50;;;;;;;;;;10290311;28;20027;-71
2022/03/07 03:27:52;;;;;;;16.63;6.90;;;;;;;;;;10290216;28;20034;-73
2022/03/07 03:32:52;;;;;;;13.03;7.67;;;;;;;;;;10289810;28;20023;-73
2022/03/07 03:37:53;;;;;;;14.15;8.07;;;;;;;;;;10289800;28;20037;-73
2022/03/07 03:42:53;;;;;;;10.75;7.05;;;;;;;;;;10289509;28;20052;-71
2022/03/07 03:47:53;;;;;;;15.05;7.97;;;;;;;;;;10289086;28;20038;-71
2022/03/07 03:52:54;;;;;;;14.00;7.80;;;;;;;;;;10288794;28;20078;-74
2022/03/07 03:57:54;;;;;;;13.27;7.77;;;;;;;;;;10289036;28;20634;-73
2022/03/07 04:02:54;;;;;;;12.40;7.93;;;;;;;;;;10288737;28;20069;-71
2022/03/07 04:07:54;;;;;;;15.10;8.23;;;;;;;;;;10288214;28;20054;-73
2022/03/07 04:12:55;;;;;;;12.40;7.73;;;;;;;;;;10288433;28;20109;-72
2022/03/07 04:17:55;;;;;;;18.47;8.20;;;;;;;;;;10304489;28;20054;-72
2022/03/07 04:22:55;;;;;;;12.23;7.30;;;;;;;;;;10289418;28;20030;-73
2022/03/07 04:27:56;;;;;;;17.03;7.97;;;;;;;;;;10288048;28;20512;-74
2022/03/07 04:32:56;;;;;;;13.63;8.53;;;;;;;;;;10289745;28;20027;-72
2022/03/07 04:37:56;;;;;;;11.27;6.97;;;;;;;;;;10304159;28;20274;-72
2022/03/07 04:42:57;;;;;;;11.83;7.87;;;;;;;;;;10287097;28;20040;-73
2022/03/07 04:47:57;;;;;;;11.88;8.93;;;;;;;;;;10302991;28;20285;-71
2022/03/07 04:52:57;;;;;;;13.70;7.97;;;;;;;;;;10319372;28;20109;-71
2022/03/07 04:57:57;;;;;;;12.63;8.60;;;;;;;;;;10326635;28;20026;-71
2022/03/07 05:02:58;;;;;;;9.68;8.32;;;;;;;;;;10328209;28;20472;-76
2022/03/07 05:07:58;;;;;;;11.98;7.22;;;;;;;;;;10324055;28;20524;-74
2022/03/07 05:12:58;;;;;;;13.03;6.97;;;;;;;;;;10324999;28;20022;-72
2022/03/07 05:17:59;;;;;;;8.00;6.30;;;;;;;;;;10341027;28;20034;-74
2022/03/07 05:22:59;;;;;;;9.57;6.70;;;;;;;;;;10315976;28;20038;-74
2022/03/07 05:27:59;;;;;;;9.43;4.90;;;;;;;;;;10323315;28;20027;-73
2022/03/07 05:33:00;;;;;;;10.52;6.72;;;;;;;;;;10307294;28;20057;-75
2022/03/07 05:38:00;;;;;;;6.93;4.65;;;;;;;;;;10319621;28;20117;-74
2022/03/07 05:43:01;;;;;;;7.50;4.68;;;;;;;;;;10323076;28;20057;-73
2022/03/07 05:48:01;;;;;;;14.07;5.53;;;;;;;;;;10322569;28;20031;-73
2022/03/07 05:53:02;;;;;;;9.23;6.60;;;;;;;;;;10325135;28;20576;-73
2022/03/07 05:58:02;;;;;;;9.35;7.18;;;;;;;;;;10323569;28;20031;-74
2022/03/07 06:03:02;;;;;;;8.27;5.78;;;;;;;;;;10322207;28;20053;-73
2022/03/07 06:08:04;;;;;;;11.83;7.63;;;;;;;;;;10320973;28;20133;-73
2022/03/07 06:13:04;;;;;;;13.02;6.25;;;;;;;;;;10323490;28;20695;-74
2022/03/07 06:18:05;;;;;;;11.85;7.40;;;;;;;;;;10328832;28;20036;-74
2022/03/07 06:23:05;;;;;;;11.27;6.27;;;;;;;;;;10331810;28;20029;-73
2022/03/07 06:28:06;;;;;;;9.95;5.63;;;;;;;;;;10332042;28;20019;-73
2022/03/07 06:33:06;;;;;;;12.68;7.95;;;;;;;;;;10331718;28;20034;-74
2022/03/07 06:38:07;;;;;;;11.40;6.15;;;;;;;;;;10330866;28;20046;-73
2022/03/07 06:43:07;;;;;;;8.95;6.75;;;;;;;;;;10315242;28;20533;-72
2022/03/07 06:48:07;;;;;;;12.60;6.90;;;;;;;;;;10330798;28;20049;-74
2022/03/07 06:53:08;;;;;;;18.63;7.40;;;;;;;;;;10330758;28;20109;-75
2022/03/07 06:58:08;;;;;;;14.50;7.60;;;;;;;;;;10331102;28;20030;-75
2022/03/07 07:03:08;;;;;;;15.70;7.80;;;;;;;;;;10331837;28;20030;-75
2022/03/07 07:08:09;;;;;;;14.63;8.13;;;;;;;;;;10330672;28;20337;-73
2022/03/07 07:13:14;;;;;;;15.70;7.20;;;;;;;;;;10331860;28;20033;-73
2022/03/07 07:18:14;;;;;;;19.00;7.40;;;;;;;;;;10330359;28;20091;-73
2022/03/07 07:23:14;;;;;;;11.70;6.72;;;;;;;;;;10330561;28;20511;-75
2022/03/07 07:28:14;;;;;;;11.63;7.32;;;;;;;;;;10330287;28;20041;-74
2022/03/07 07:33:15;;;;;;;22.85;7.95;;;;;;;;;;10329657;28;20025;-70
2022/03/07 07:38:15;;;;;;;20.00;5.20;;;;;;;;;;10329519;28;20121;-74
2022/03/07 07:43:16;;;;;;;26.33;5.77;;;;;;;;;;10330278;28;20168;-74
2022/03/07 07:48:17;;;;;;;8.48;5.18;;;;;;;;;;10329000;28;20694;-73
2022/03/07 07:53:17;;;;;;;15.45;6.72;;;;;;;;;;10312529;28;20021;-73
2022/03/07 07:58:17;;;;;;;13.30;5.47;;;;;;;;;;10328696;28;20033;-72
2022/03/07 08:03:18;;;;;;;5.70;4.53;;;;;;;;;;10328554;28;20057;-73
2022/03/07 08:08:18;;;;;;;6.50;3.97;;;;;;;;;;10327973;28;20046;-73
2022/03/07 08:13:18;;;;;;;8.27;4.22;;;;;;;;;;10328038;28;20023;-73
2022/03/07 08:18:19;;;;;;;5.87;3.73;;;;;;;;;;10327764;28;20162;-72
2022/03/07 08:23:19;;;;;;;9.45;4.10;;;;;;;;;;10327682;28;20269;-73
2022/03/07 08:28:19;;;;;;;15.15;5.47;;;;;;;;;;10327472;28;20029;-72
2022/03/07 08:33:19;;;;;;;9.93;5.32;;;;;;;;;;10327523;28;20459;-74
2022/03/07 08:38:20;;;;;;;10.65;6.55;;;;;;;;;;10327208;28;20147;-74
2022/03/07 08:43:20;;;;;;;8.20;4.90;;;;;;;;;;10327416;28;20031;-74
2022/03/07 08:48:21;;;;;;;8.60;6.05;;;;;;;;;;10326713;28;20113;-74
2022/03/07 08:53:21;;;;;;;10.63;4.87;;;;;;;;;;10327912;28;20018;-74
2022/03/07 08:58:21;;;;;;;12.05;6.65;;;;;;;;;;10326311;28;20496;-74
2022/03/07 09:03:21;;;;;;;14.50;5.07;;;;;;;;;;10326328;28;20400;-72
2022/03/07 09:08:22;;;;;;;11.27;5.50;;;;;;;;;;10326247;28;20070;-72
2022/03/07 09:13:22;;;;;;;10.45;4.85;;;;;;;;;;10325922;28;20565;-73
2022/03/07 09:18:22;;;;;;;8.65;4.00;;;;;;;;;;10325884;28;20044;-73
2022/03/07 09:23:23;;;;;;;11.77;5.72;;;;;;;;;;10325711;28;20083;-74
2022/03/07 09:28:23;;;;;;;15.18;7.28;;;;;;;;;;10325767;28;20448;-74
2022/03/07 09:33:24;;;;;;;16.30;8.50;;;;;;;;;;10325524;28;20436;-72
2022/03/07 09:38:24;;;;;;;22.30;12.53;;;;;;;;;;10325342;28;20022;-73
2022/03/07 09:43:24;;;;;;;15.95;10.52;;;;;;;;;;10326754;28;20030;-74
2022/03/07 09:48:25;;;;;;;19.23;10.65;;;;;;;;;;10326256;28;20591;-73
2022/03/07 09:53:26;;;;;;;15.95;9.82;;;;;;;;;;10329884;28;20392;-73
2022/03/07 09:58:26;;;;;;;20.40;9.65;;;;;;;;;;10332523;28;20113;-73
2022/03/07 10:03:29;;;;;;;20.42;10.10;;;;;;;;;;10332625;28;20109;-73
2022/03/07 10:08:30;;;;;;;17.20;9.63;;;;;;;;;;10332696;28;20051;-74
2022/03/07 10:13:30;;;;;;;18.05;9.68;;;;;;;;;;10332231;28;20022;-72
2022/03/07 10:18:30;;;;;;;19.60;10.23;;;;;;;;;;10332565;28;20416;-73
2022/03/07 10:23:31;;;;;;;17.45;10.98;;;;;;;;;;10332125;28;20022;-74
2022/03/07 10:28:35;;;;;;;15.55;9.20;;;;;;;;;;10331628;28;20133;-73
2022/03/07 10:33:35;;;;;;;15.95;9.77;;;;;;;;;;10331836;28;20018;-74
2022/03/07 10:38:35;;;;;;;25.02;12.10;;;;;;;;;;10331499;28;20026;-72
2022/03/07 10:43:45;;;;;;;26.20;12.83;;;;;;;;;;10331711;28;20455;-72
2022/03/07 10:48:45;;;;;;;20.60;11.25;;;;;;;;;;10331863;28;20285;-73
2022/03/07 10:53:45;;;;;;;21.75;12.05;;;;;;;;;;10333554;28;20023;-73
2022/03/07 10:58:47;;;;;;;22.00;10.63;;;;;;;;;;10334076;28;20089;-72
2022/03/07 11:03:47;;;;;;;18.58;9.68;;;;;;;;;;10314912;28;20056;-73
2022/03/07 11:08:47;;;;;;;17.23;10.88;;;;;;;;;;10330701;28;20565;-74
2022/03/07 11:13:53;;;;;;;19.60;11.17;;;;;;;;;;10330686;28;20022;-73
2022/03/07 11:18:54;;;;;;;25.42;14.75;;;;;;;;;;10332112;28;20018;-73
2022/03/07 11:23:56;;;;;;;25.38;13.25;;;;;;;;;;10331333;28;20026;-73
2022/03/07 11:28:57;;;;;;;20.00;12.25;;;;;;;;;;10314747;28;20385;-74
2022/03/07 11:33:58;;;;;;;24.85;12.65;;;;;;;;;;10330604;28;20038;-73
2022/03/07 11:39:00;;;;;;;26.13;13.40;;;;;;;;;;10331478;28;20113;-73
2022/03/07 11:44:02;;;;;;;22.00;12.95;;;;;;;;;;10329844;28;20261;-73
2022/03/07 11:49:03;;;;;;;18.02;11.05;;;;;;;;;;10329403;28;20026;-72
2022/03/07 11:54:04;;;;;;;17.13;9.35;;;;;;;;;;10330428;28;20101;-73
2022/03/07 11:59:05;;;;;;;19.05;10.55;;;;;;;;;;10329664;28;20109;-75
2022/03/07 12:04:07;;;;;;;20.08;9.93;;;;;;;;;;10313193;28;20431;-75
2022/03/07 12:09:08;;;;;;;16.00;10.07;;;;;;;;;;10328993;28;20034;-75
2022/03/07 12:14:09;;;;;;;14.68;10.23;;;;;;;;;;10330067;28;20018;-73
2022/03/07 12:19:13;;;;;;;16.88;9.57;;;;;;;;;;10312106;28;20030;-74
2022/03/07 12:24:16;;;;;;;21.27;12.32;;;;;;;;;;10329297;28;20108;-74
2022/03/07 12:29:17;;;;;;;20.98;11.80;;;;;;;;;;10329093;28;20065;-74
2022/03/07 12:34:30;;;;;;;26.58;13.20;;;;;;;;;;10327712;28;20353;-74
2022/03/07 12:39:42;;;;;;;23.65;14.10;;;;;;;;;;10327240;28;20030;-72
2022/03/07 12:44:42;;;;;;;32.25;16.10;;;;;;;;;;10327190;28;20026;-73
2022/03/07 12:49:46;;;;;;;33.97;18.77;;;;;;;;;;10326547;28;20023;-73
2022/03/07 12:54:47;;;;;;;35.75;19.73;;;;;;;;;;10326840;28;20113;-74
2022/03/07 12:59:48;;;;;;;38.95;21.92;;;;;;;;;;10327116;28;20133;-73
2022/03/07 13:04:55;;;;;;;33.42;19.00;;;;;;;;;;10326482;28;20429;-72
2022/03/07 13:09:55;;;;;;;28.67;18.17;;;;;;;;;;10326100;28;20117;-73
2022/03/07 13:14:57;;;;;;;34.97;16.85;;;;;;;;;;10326002;28;20109;-75
2022/03/07 13:19:58;;;;;;;31.00;19.83;;;;;;;;;;10326161;28;20050;-74
2022/03/07 13:24:58;;;;;;;38.13;20.03;;;;;;;;;;10325796;28;20049;-74
2022/03/07 13:30:07;;;;;;;25.05;16.30;;;;;;;;;;10333481;28;20054;-74
2022/03/07 13:35:08;;;;;;;29.13;18.00;;;;;;;;;;10333937;28;20527;-74
2022/03/07 13:40:08;;;;;;;40.58;19.10;;;;;;;;;;10335151;28;20052;-73
2022/03/07 13:45:13;;;;;;;34.30;19.35;;;;;;;;;;10333663;28;20033;-73
2022/03/07 13:50:23;;;;;;;24.88;13.55;;;;;;;;;;10333378;28;20018;-74
2022/03/07 13:55:23;;;;;;;17.55;10.85;;;;;;;;;;10333186;28;20015;-72
2022/03/07 14:00:26;;;;;;;18.17;10.67;;;;;;;;;;10333324;28;20049;-72
2022/03/07 14:05:38;;;;;;;15.68;11.27;;;;;;;;;;10333044;28;20108;-74
2022/03/07 14:10:38;;;;;;;19.48;11.27;;;;;;;;;;10332719;28;20073;-73
2022/03/07 14:15:40;;;;;;;22.50;13.13;;;;;;;;;;10332749;28;20015;-74
2022/03/07 14:20:42;;;;;;;21.95;12.27;;;;;;;;;;10327336;28;20113;-74
2022/03/07 14:25:42;;;;;;;23.58;11.70;;;;;;;;;;10322518;28;20030;-74
2022/03/07 14:30:42;;;;;;;17.93;12.23;;;;;;;;;;10330704;28;20019;-73
2022/03/07 14:35:43;;;;;;;21.30;12.30;;;;;;;;;;10320924;28;20326;-72
2022/03/07 14:40:43;;;;;;;17.80;10.60;;;;;;;;;;10327129;28;20180;-73
2022/03/07 14:45:44;;;;;;;19.45;10.05;;;;;;;;;;10329859;28;20304;-72
2022/03/07 14:50:44;;;;;;;21.52;12.50;;;;;;;;;;10330958;28;20493;-72
2022/03/07 14:55:44;;;;;;;23.13;12.77;;;;;;;;;;10330520;28;20026;-71
2022/03/07 15:00:44;;;;;;;16.70;13.20;;;;;;;;;;10326653;28;20457;-73
2022/03/07 15:05:45;;;;;;;21.60;12.57;;;;;;;;;;10327043;28;20030;-73
2022/03/07 15:10:46;;;;;;;23.30;12.20;;;;;;;;;;10330360;28;20125;-73
2022/03/07 15:15:46;;;;;;;22.90;12.60;;;;;;;;;;10330679;28;20105;-73
2022/03/07 15:20:47;;;;;;;22.77;13.27;;;;;;;;;;10329748;28;20186;-73
2022/03/07 15:25:47;;;;;;;20.17;12.07;;;;;;;;;;10330322;28;20018;-71
2022/03/07 15:30:47;;;;;;;21.83;11.80;;;;;;;;;;10321504;28;20270;-71
2022/03/07 15:35:48;;;;;;;25.35;14.27;;;;;;;;;;10316728;28;20113;-71
2022/03/07 15:40:48;;;;;;;26.35;12.68;;;;;;;;;;10314854;28;20030;-72
2022/03/07 15:45:49;;;;;;;21.17;12.32;;;;;;;;;;10322763;28;20222;-72
2022/03/07 15:50:49;;;;;;;22.57;12.73;;;;;;;;;;10326851;28;20022;-74
2022/03/07 15:55:52;;;;;;;22.75;13.32;;;;;;;;;;10327254;28;20022;-74
2022/03/07 16:00:53;;;;;;;23.00;14.43;;;;;;;;;;10326559;28;20110;-71
2022/03/07 16:05:53;;;;;;;21.77;13.35;;;;;;;;;;10326658;28;20117;-72
2022/03/07 16:10:56;;;;;;;21.80;13.77;;;;;;;;;;10327889;28;20065;-71
2022/03/07 16:15:57;;;;;;;23.35;12.77;;;;;;;;;;10327798;23;20057;-71
2022/03/07 16:20:57;;;;;;;26.35;12.35;;;;;;;;;;10303267;28;20446;-71
2022/03/07 16:25:57;;;;;;;22.77;14.10;;;;;;;;;;10278011;28;20089;-72
2022/03/07 16:30:58;;;;;;;24.87;14.47;;;;;;;;;;10281990;28;20037;-70
2022/03/07 16:35:58;;;;;;;22.33;13.50;;;;;;;;;;10295212;28;20029;-72
2022/03/07 16:40:59;;;;;;;22.63;14.57;;;;;;;;;;10302832;28;20027;-71
2022/03/07 16:45:59;;;;;;;25.27;13.35;;;;;;;;;;10296438;28;20034;-72
2022/03/07 16:50:59;;;;;;;23.65;12.95;;;;;;;;;;10287840;28;20085;-72
2022/03/07 16:56:00;;;;;;;18.40;14.45;;;;;;;;;;10299250;28;20489;-72
2022/03/07 17:01:01;;;;;;;20.25;12.07;;;;;;;;;;10297403;28;20042;-70
2022/03/07 17:06:01;;;;;;;18.42;10.32;;;;;;;;;;10303610;28;20114;-71
2022/03/07 17:11:01;;;;;;;20.47;10.60;;;;;;;;;;10290453;28;20089;-75
2022/03/07 17:16:02;;;;;;;21.38;13.05;;;;;;;;;;10272468;28;20302;-69
2022/03/07 17:21:02;;;;;;;21.63;13.55;;;;;;;;;;10277860;28;20053;-78
2022/03/07 17:26:03;;;;;;;23.33;13.87;;;;;;;;;;10301111;28;20082;-72
2022/03/07 17:31:03;;;;;;;20.87;12.80;;;;;;;;;;10279582;28;20349;-73
2022/03/07 17:36:03;;;;;;;17.60;10.25;;;;;;;;;;10269683;28;20019;-69
2022/03/07 17:41:04;;;;;;;19.60;10.80;;;;;;;;;;10301034;28;20413;-70
2022/03/07 17:46:04;;;;;;;21.33;10.33;;;;;;;;;;10285776;28;20027;-76
2022/03/07 17:51:04;;;;;;;20.07;11.87;;;;;;;;;;10286881;28;20277;-73
2022/03/07 17:56:05;;;;;;;18.77;10.20;;;;;;;;;;10286888;28;20026;-71
2022/03/07 18:01:05;;;;;;;16.35;8.48;;;;;;;;;;10287373;28;20101;-72
2022/03/07 18:06:05;;;;;;;21.97;10.57;;;;;;;;;;10301747;28;20481;-71
2022/03/07 18:11:06;;;;;;;15.45;10.35;;;;;;;;;;10301591;28;20456;-71
2022/03/07 18:16:07;;;;;;;18.42;9.48;;;;;;;;;;10291904;28;20213;-70
2022/03/07 18:21:07;;;;;;;17.50;10.57;;;;;;;;;;10293910;28;20026;-71
2022/03/07 18:26:07;;;;;;;18.70;9.43;;;;;;;;;;10293623;28;20027;-70
2022/03/07 18:31:08;;;;;;;19.08;10.18;;;;;;;;;;10308085;28;20094;-72
2022/03/07 18:36:08;;;;;;;15.00;10.30;;;;;;;;;;10293679;28;20023;-72
2022/03/07 18:41:09;;;;;;;14.30;9.27;;;;;;;;;;10292848;28;20027;-71
2022/03/07 18:46:09;;;;;;;16.58;8.90;;;;;;;;;;10291610;28;20022;-71
2022/03/07 18:51:10;;;;;;;19.58;10.43;;;;;;;;;;10308189;28;20109;-71
2022/03/07 18:56:10;;;;;;;16.52;8.88;;;;;;;;;;10296399;28;20493;-71
2022/03/07 19:01:11;;;;;;;21.50;10.07;;;;;;;;;;10286385;28;20114;-71
2022/03/07 19:06:11;;;;;;;17.42;9.30;;;;;;;;;;10292181;28;20429;-72
2022/03/07 19:11:12;;;;;;;17.10;10.35;;;;;;;;;;10306784;28;20114;-69
2022/03/07 19:16:13;;;;;;;21.30;10.25;;;;;;;;;;10306624;28;20499;-70
2022/03/07 19:21:16;;;;;;;15.87;10.57;;;;;;;;;;10290702;28;20058;-72
2022/03/07 19:26:17;;;;;;;16.35;9.73;;;;;;;;;;10290518;28;20277;-72
2022/03/07 19:31:17;;;;;;;21.88;12.15;;;;;;;;;;10291034;28;20027;-72
2022/03/07 19:36:18;;;;;;;25.02;13.55;;;;;;;;;;10291192;28;20026;-72
2022/03/07 19:41:19;;;;;;;23.77;11.07;;;;;;;;;;10291702;28;20110;-75
2022/03/07 19:46:19;;;;;;;17.52;11.95;;;;;;;;;;10299057;28;20050;-70
2022/03/07 19:51:20;;;;;;;14.80;9.65;;;;;;;;;;10282370;28;20096;-71
2022/03/07 19:56:21;;;;;;;22.08;11.82;;;;;;;;;;10298320;28;20031;-71
2022/03/07 20:01:21;;;;;;;18.85;10.85;;;;;;;;;;10283737;28;20027;-69
2022/03/07 20:06:22;;;;;;;15.83;11.27;;;;;;;;;;10301608;28;20644;-71
2022/03/07 20:11:24;;;;;;;17.17;10.80;;;;;;;;;;10285471;28;20628;-73
2022/03/07 20:16:24;;;;;;;20.02;9.55;;;;;;;;;;10287868;28;20051;-71
2022/03/07 20:21:25;;;;;;;17.38;9.98;;;;;;;;;;10285992;28;20019;-69
2022/03/07 20:26:25;;;;;;;16.00;10.82;;;;;;;;;;10286413;28;20485;-70
2022/03/07 20:31:25;;;;;;;20.20;12.80;;;;;;;;;;10287801;28;20023;-70
2022/03/07 20:36:26;;;;;;;19.70;12.90;;;;;;;;;;10287118;28;20114;-70
2022/03/07 20:41:26;;;;;;;19.70;11.20;;;;;;;;;;10270651;28;20270;-71
2022/03/07 20:46:26;;;;;;;17.83;11.10;;;;;;;;;;10302020;28;20109;-71
2022/03/07 20:51:29;;;;;;;19.95;12.00;;;;;;;;;;10285879;28;20267;-72
2022/03/07 20:56:29;;;;;;;23.55;14.55;;;;;;;;;;10288094;28;20031;-71
2022/03/07 21:01:29;;;;;;;28.00;14.00;;;;;;;;;;10301955;28;20117;-73
2022/03/07 21:06:30;;;;;;;22.25;11.35;;;;;;;;;;10281131;28;20815;-70
2022/03/07 21:11:30;;;;;;;26.17;14.07;;;;;;;;;;10301418;28;20023;-70
2022/03/07 21:16:30;;;;;;;24.03;13.70;;;;;;;;;;10301335;28;20306;-73
2022/03/07 21:21:31;;;;;;;23.20;13.57;;;;;;;;;;10301465;28;20029;-70
2022/03/07 21:26:31;;;;;;;27.95;16.75;;;;;;;;;;10302270;28;20033;-70
2022/03/07 21:31:32;;;;;;;24.25;14.70;;;;;;;;;;10285208;28;20023;-71
2022/03/07 21:36:32;;;;;;;29.10;16.27;;;;;;;;;;10298600;28;20029;-71
2022/03/07 21:41:33;;;;;;;22.08;13.63;;;;;;;;;;10297969;28;20266;-71
2022/03/07 21:46:33;;;;;;;28.50;16.05;;;;;;;;;;10295753;28;20047;-71
2022/03/07 21:51:34;;;;;;;24.05;15.15;;;;;;;;;;10291214;28;20022;-70
2022/03/07 21:56:34;;;;;;;19.55;13.30;;;;;;;;;;10290492;28;20547;-75
2022/03/07 22:01:34;;;;;;;28.55;16.63;;;;;;;;;;10305632;28;20026;-73
2022/03/07 22:06:37;;;;;;;27.97;15.63;;;;;;;;;;10301121;28;20027;-70
2022/03/07 22:11:37;;;;;;;29.42;17.30;;;;;;;;;;10286004;28;20026;-73
2022/03/07 22:16:38;;;;;;;25.33;14.40;;;;;;;;;;10301473;28;20081;-71
2022/03/07 22:21:38;;;;;;;27.77;14.60;;;;;;;;;;10298506;28;20047;-70
2022/03/07 22:26:39;;;;;;;29.92;14.35;;;;;;;;;;10297263;28;20034;-71
2022/03/07 22:31:39;;;;;;;29.20;15.73;;;;;;;;;;10285219;28;20027;-71
2022/03/07 22:36:39;;;;;;;31.10;16.65;;;;;;;;;;10301649;28;20351;-71
2022/03/07 22:41:40;;;;;;;27.73;16.83;;;;;;;;;;10301507;28;20416;-71
2022/03/07 22:46:40;;;;;;;30.95;16.92;;;;;;;;;;10285699;28;20539;-69
2022/03/07 22:51:40;;;;;;;32.38;16.52;;;;;;;;;;10297162;28;20042;-70
2022/03/07 22:56:41;;;;;;;37.43;16.63;;;;;;;;;;10300401;28;20038;-73
2022/03/07 23:01:41;;;;;;;33.22;17.33;;;;;;;;;;10283373;28;20034;-70
2022/03/07 23:12:00;;;;;;;33.42;18.00;;;;;;;;;;10283208;28;20492;-70
2022/03/07 23:17:01;;;;;;;36.75;20.20;;;;;;;;;;10285532;28;20139;-70
2022/03/07 23:22:01;;;;;;;32.03;16.67;;;;;;;;;;10298859;28;20544;-70
2022/03/07 23:27:01;;;;;;;30.53;17.57;;;;;;;;;;10298289;28;20440;-70
2022/03/07 23:32:02;;;;;;;28.40;14.83;;;;;;;;;;10297187;28;20018;-71
2022/03/07 23:37:02;;;;;;;34.00;17.38;;;;;;;;;;10294268;28;20089;-71
2022/03/07 23:42:03;;;;;;;33.83;17.65;;;;;;;;;;10282652;28;20478;-71
2022/03/07 23:47:03;;;;;;;34.80;18.35;;;;;;;;;;10282931;28;20094;-73
2022/03/07 23:52:05;;;;;;;25.17;16.58;;;;;;;;;;10283759;28;20030;-74
2022/03/07 23:57:05;;;;;;;34.13;17.92;;;;;;;;;;10280859;28;20444;-70
